Milton, FL

12:45 PM CDT on July 28, 2016 (GMT -0500)
JnK Ranch | | Change Station

Elev 210 ft 30.76 °N, 87.05 °W | Updated 2 minutes ago

Overcast
Overcast
88.6 °F
Feels Like 96 °F
N
6.0
Wind Variable Wind from South
Gusts 12.0 mph

Today
High -- | Low -- °F
--% Chance of Precip.
Yesterday
High -- | Low -- °F
Precip. -- in
Pressure 30.07 in
Visibility 10.0 miles
Clouds Scattered Clouds 3500 ft
Heat Index 96 °F
Dew Point 73 °F
Humidity 60%
Rainfall 0.00 in
Snow Depth Not available.
6:03 AM 7:45 PM
Waning Crescent, 30% visible
SPECI KNDZ 281731Z VRB04KT 10SM TS SCT035CB 33/24 A3007 RMK AO2 OCNL LTGICCG SW-W TSB25 TS SW-W MOV NE T1 SET T03330244
Pressure 30.07 in
Visibility 10.0 miles
Clouds Scattered Clouds 3500 ft
Heat Index 96 °F
Dew Point 73 °F
Humidity 60%
Rainfall 0.00 in
Snow Depth Not available.
6:03 AM 7:45 PM
Waning Crescent, 30% visible
SPECI KNDZ 281731Z VRB04KT 10SM TS SCT035CB 33/24 A3007 RMK AO2 OCNL LTGICCG SW-W TSB25 TS SW-W MOV NE T1 SET T03330244

10-Day Weather Forecast

Almanac

Astronomy

Jul. 28, 2016 Rise Set
Actual Time
Civil Twilight
Nautical Twilight
Astronomical Twilight
Moon
Length of Visible Light
Length of Day
Tomorrow will be .
, % of the Moon is Illuminated

Today's Extremes

State Highs State Lows

Community

WunderPhotos

Upload Photos

1,928,163 photos uploaded!

WunderBlog® & News

Nearby

Air Quality

  Air Quality AQ Index Pollutant
Not available.

Snow Depth

Station Depth Elevation

Earthquake Activity

City Distance Mag. Time & Date
Minimum magnitude displayed is 2.5.

Coastal Water Temperatures

Place Temperature

Stations

Nearby Weather Stations

Station Location Temp. Windchill Dew Point Humidity Wind Precip. Elev Updated Type
                   

Watches & Warnings

There are currently no watches in effect.